createdAt,value
2019-05-29T00:00:26.645Z,96894.39
2019-05-29T00:05:22.630Z,96892.82
2019-05-29T00:10:18.694Z,96904.50
2019-05-29T00:15:14.950Z,96900.47
2019-05-29T00:20:10.870Z,96915.59
2019-05-29T00:25:08.517Z,96919.13
2019-05-29T00:30:11.165Z,96914.75
2019-05-29T00:35:03.054Z,96913.54
2019-05-29T00:39:58.962Z,96916.27
2019-05-29T00:44:57.893Z,96922.14
2019-05-29T00:49:56.800Z,96920.21
2019-05-29T00:54:52.604Z,96919.86
2019-05-29T00:59:48.643Z,96917.11
2019-05-29T01:04:44.503Z,96916.89
2019-05-29T01:09:40.545Z,96924.01
2019-05-29T01:14:49.141Z,96929.86
2019-05-29T01:19:34.472Z,96934.98
2019-05-29T01:24:30.264Z,96932.01
2019-05-29T01:29:26.019Z,96935.83
2019-05-29T01:34:22.077Z,96939.05
2019-05-29T01:39:17.938Z,96942.38
2019-05-29T01:44:13.776Z,96945.25
2019-05-29T01:49:10.010Z,96945.27
2019-05-29T01:54:06.150Z,96947.41
2019-05-29T01:59:02.118Z,96955.97
2019-05-29T02:03:58.138Z,96951.00
2019-05-29T02:08:53.946Z,96955.97
2019-05-29T02:13:50.116Z,96956.92
2019-05-29T02:18:46.007Z,96955.27
2019-05-29T02:23:42.021Z,96960.03
2019-05-29T02:28:37.838Z,96971.78
2019-05-29T02:33:33.704Z,96969.53
2019-05-29T02:38:29.547Z,96976.34
2019-05-29T02:43:26.054Z,96980.23
2019-05-29T02:48:23.615Z,96986.09
2019-05-29T02:53:22.231Z,96985.53
2019-05-29T02:58:18.246Z,96995.14
2019-05-29T03:03:14.211Z,97003.40
2019-05-29T03:08:10.375Z,96999.33
2019-05-29T03:13:06.375Z,96999.86
2019-05-29T03:18:02.223Z,97009.17
2019-05-29T03:22:58.160Z,97012.16
2019-05-29T03:27:54.246Z,97009.55
2019-05-29T03:32:50.197Z,97028.73
2019-05-29T03:37:46.065Z,97026.25
2019-05-29T03:42:41.882Z,97033.53
2019-05-29T03:47:37.818Z,97052.12
2019-05-29T03:52:34.653Z,97047.02
2019-05-29T03:57:31.761Z,97058.07
2019-05-29T04:08:08.251Z,97065.72
2019-05-29T04:13:05.144Z,97076.11
2019-05-29T04:18:05.182Z,97082.69
2019-05-29T04:23:04.556Z,97085.33
2019-05-29T04:28:06.930Z,97088.23
2019-05-29T04:33:02.839Z,97096.47
2019-05-29T04:37:58.981Z,97100.89
2019-05-29T04:42:54.888Z,97102.22
2019-05-29T04:48:01.830Z,97114.30
2019-05-29T04:52:58.076Z,97117.77
2019-05-29T04:57:57.426Z,97131.95
2019-05-29T05:02:53.351Z,97126.98
2019-05-29T05:07:49.162Z,97139.04
2019-05-29T05:12:45.439Z,97145.62
2019-05-29T05:17:41.284Z,97148.16
2019-05-29T05:22:38.191Z,97147.20
2019-05-29T05:27:34.177Z,97144.59
2019-05-29T05:32:30.797Z,97147.48
2019-05-29T05:37:31.214Z,97150.70
2019-05-29T05:42:29.293Z,97158.84
2019-05-29T05:47:43.087Z,97171.19
2019-05-29T05:52:23.052Z,97162.96
2019-05-29T05:57:21.196Z,97173.11
2019-05-29T06:02:17.293Z,97171.33
2019-05-29T06:07:13.074Z,97173.70
2019-05-29T06:12:09.143Z,97183.16
2019-05-29T06:17:05.257Z,97184.47
2019-05-29T06:22:01.140Z,97193.53
2019-05-29T06:26:57.084Z,97201.91
2019-05-29T06:31:55.776Z,97205.14
2019-05-29T06:36:51.710Z,97204.17
2019-05-29T06:41:47.704Z,97201.75
2019-05-29T06:46:45.489Z,97206.48
2019-05-29T06:51:41.587Z,97205.24
2019-05-29T06:56:37.734Z,97221.41
2019-05-29T07:01:33.585Z,97215.28
2019-05-29T07:06:29.361Z,97222.02
2019-05-29T07:11:25.134Z,97225.70
2019-05-29T07:16:20.970Z,97237.59
2019-05-29T07:21:16.780Z,97236.95
2019-05-29T07:26:12.545Z,97247.99
2019-05-29T07:31:10.682Z,97249.17
2019-05-29T07:36:06.546Z,97252.70
2019-05-29T07:41:02.897Z,97256.95
2019-05-29T07:45:59.040Z,97257.08
2019-05-29T07:51:06.900Z,97263.78
2019-05-29T07:55:59.986Z,97265.16
2019-05-29T08:01:11.636Z,97271.17
2019-05-29T08:05:53.987Z,97286.36
2019-05-29T08:10:51.541Z,97284.88
2019-05-29T08:15:59.741Z,97290.25
2019-05-29T08:20:46.433Z,97296.42
2019-05-29T08:26:48.932Z,97294.97
2019-05-29T08:32:14.592Z,97303.43
2019-05-29T08:37:58.756Z,97302.27
2019-05-29T08:42:59.321Z,97301.84
2019-05-29T08:47:58.107Z,97298.52
2019-05-29T08:59:02.709Z,97300.99
2019-05-29T09:03:49.125Z,97309.28
2019-05-29T09:08:46.650Z,97307.23
2019-05-29T09:13:42.728Z,97312.52
2019-05-29T09:18:38.568Z,97316.45
2019-05-29T09:23:36.687Z,97326.71
2019-05-29T09:28:29.857Z,97330.93
2019-05-29T09:33:25.881Z,97342.11
2019-05-29T09:38:23.043Z,97337.98
2019-05-29T09:43:19.966Z,97344.06
2019-05-29T09:48:20.290Z,97341.67
2019-05-29T09:53:14.334Z,97341.42
2019-05-29T09:58:16.665Z,97334.64
2019-05-29T10:03:12.577Z,97338.56
2019-05-29T10:08:08.636Z,97337.20
2019-05-29T10:13:04.714Z,97336.94
2019-05-29T10:18:02.607Z,97331.92
2019-05-29T10:22:59.079Z,97338.64
2019-05-29T10:27:57.103Z,97330.34
2019-05-29T10:32:58.389Z,97331.28
2019-05-29T10:38:27.506Z,97332.71
2019-05-29T10:43:51.295Z,97327.28
2019-05-29T10:48:49.255Z,97326.73
2019-05-29T10:54:14.896Z,97336.81
2019-05-29T10:59:13.173Z,97343.74
2019-05-29T11:04:09.174Z,97351.77
2019-05-29T11:09:08.266Z,97353.70
2019-05-29T11:14:03.868Z,97372.56
2019-05-29T11:18:59.910Z,97376.10
2019-05-29T11:23:58.250Z,97370.97
2019-05-29T11:28:54.582Z,97373.53
2019-05-29T11:33:50.772Z,97376.29
2019-05-29T11:38:47.627Z,97374.96
2019-05-29T11:43:45.694Z,97375.49
2019-05-29T11:48:41.676Z,97376.03
2019-05-29T11:53:37.644Z,97382.17
2019-05-29T11:58:33.688Z,97386.45
2019-05-29T12:03:29.491Z,97396.70
2019-05-29T12:08:25.306Z,97391.48
2019-05-29T12:13:21.331Z,97398.52
2019-05-29T12:18:23.602Z,97403.21
2019-05-29T12:23:25.595Z,97397.55
2019-05-29T12:28:12.427Z,97404.03
2019-05-29T12:33:08.661Z,97410.79
2019-05-29T12:38:10.491Z,97408.98
2019-05-29T12:43:03.657Z,97402.05
2019-05-29T12:48:15.059Z,97396.61
2019-05-29T12:53:28.272Z,97395.34
2019-05-29T12:58:08.614Z,97405.09
2019-05-29T13:03:28.335Z,97403.88
2019-05-29T13:08:21.499Z,97405.39
2019-05-29T13:13:24.619Z,97402.80
2019-05-29T13:18:17.881Z,97412.25
2019-05-29T13:23:20.034Z,97410.39
2019-05-29T13:28:13.830Z,97402.42
2019-05-29T13:33:20.401Z,97394.74
2019-05-29T13:38:18.384Z,97395.37
2019-05-29T13:43:16.464Z,97398.86
2019-05-29T13:48:12.069Z,97393.11
2019-05-29T13:53:07.983Z,97397.80
2019-05-29T13:58:03.901Z,97392.30
2019-05-29T14:03:42.658Z,97403.01
2019-05-29T14:09:28.922Z,97402.95
2019-05-29T14:14:24.981Z,97413.24
2019-05-29T14:19:20.980Z,97428.88
2019-05-29T14:24:28.633Z,97432.14
2019-05-29T14:29:15.430Z,97436.14
2019-05-29T14:34:13.410Z,97443.98
2019-05-29T14:39:10.063Z,97455.91
2019-05-29T14:44:07.812Z,97463.27
2019-05-29T14:49:13.495Z,97462.56
2019-05-29T14:54:02.792Z,97471.66
2019-05-29T14:58:58.740Z,97485.34
2019-05-29T15:04:01.510Z,97499.63
2019-05-29T15:08:57.513Z,97502.42
2019-05-29T15:13:53.649Z,97506.37
2019-05-29T15:18:49.707Z,97512.91
2019-05-29T15:23:45.565Z,97510.92
2019-05-29T15:28:49.009Z,97520.55
2019-05-29T15:33:45.164Z,97521.12
2019-05-29T15:38:41.200Z,97522.66
2019-05-29T15:43:37.321Z,97522.44
2019-05-29T15:48:33.496Z,97522.44
2019-05-29T15:53:29.926Z,97514.29
2019-05-29T15:58:26.620Z,97522.88
2019-05-29T16:09:18.699Z,97521.38
2019-05-29T16:14:30.843Z,97520.62
2019-05-29T16:20:02.894Z,97533.16
2019-05-29T16:25:40.466Z,97542.78
2019-05-29T16:42:48.934Z,97551.28
2019-05-29T17:01:55.312Z,97567.58
2019-05-29T17:45:19.520Z,97614.03
2019-05-29T17:50:13.266Z,97618.46
2019-05-29T17:55:10.143Z,97622.86
2019-05-29T18:00:08.471Z,97622.84
2019-05-29T18:05:04.792Z,97635.69
2019-05-29T18:10:10.291Z,97630.55
2019-05-29T18:15:07.313Z,97632.33
2019-05-29T18:20:03.711Z,97640.17
2019-05-29T18:25:02.511Z,97649.27
2019-05-29T18:30:00.749Z,97657.55
2019-05-29T18:34:56.906Z,97659.70
2019-05-29T18:39:53.149Z,97661.63
2019-05-29T18:44:50.354Z,97665.42
2019-05-29T18:49:49.503Z,97670.52
